sensor_id;sensor_type;location;lat;lon;timestamp;temperature;humidity
21849;DHT22;11089;49.852;19.700;2022-08-27T00:00:33;17.90;99.90
21849;DHT22;11089;49.852;19.700;2022-08-27T00:03:35;17.80;1.00
21849;DHT22;11089;49.852;19.700;2022-08-27T00:06:36;17.80;99.90
21849;DHT22;11089;49.852;19.700;2022-08-27T00:09:37;17.70;99.90
21849;DHT22;11089;49.852;19.700;2022-08-27T00:12:38;17.70;99.90
21849;DHT22;11089;49.852;19.700;2022-08-27T00:15:39;17.60;99.90
21849;DHT22;11089;49.852;19.700;2022-08-27T00:18:42;17.60;1.00
21849;DHT22;11089;49.852;19.700;2022-08-27T00:21:43;17.70;99.90
21849;DHT22;11089;49.852;19.700;2022-08-27T00:24:44;17.80;99.90
21849;DHT22;11089;49.852;19.700;2022-08-27T00:27:45;17.60;99.90
21849;DHT22;11089;49.852;19.700;2022-08-27T00:30:46;17.50;1.00
21849;DHT22;11089;49.852;19.700;2022-08-27T00:33:47;17.50;1.00
21849;DHT22;11089;49.852;19.700;2022-08-27T00:36:48;17.50;1.00
21849;DHT22;11089;49.852;19.700;2022-08-27T00:39:49;17.70;99.90
21849;DHT22;11089;49.852;19.700;2022-08-27T00:42:49;17.60;1.00
21849;DHT22;11089;49.852;19.700;2022-08-27T00:45:53;17.60;1.00
21849;DHT22;11089;49.852;19.700;2022-08-27T00:49:02;17.50;1.00
21849;DHT22;11089;49.852;19.700;2022-08-27T00:55:25;17.50;99.90
21849;DHT22;11089;49.852;19.700;2022-08-27T00:58:31;17.30;1.00
21849;DHT22;11089;49.852;19.700;2022-08-27T01:01:33;17.20;1.00
21849;DHT22;11089;49.852;19.700;2022-08-27T01:04:36;17.20;99.90
21849;DHT22;11089;49.852;19.700;2022-08-27T01:07:40;17.30;1.00
21849;DHT22;11089;49.852;19.700;2022-08-27T01:10:42;17.30;35.30
21849;DHT22;11089;49.852;19.700;2022-08-27T01:13:43;17.30;99.90
21849;DHT22;11089;49.852;19.700;2022-08-27T01:16:50;17.20;1.00
21849;DHT22;11089;49.852;19.700;2022-08-27T01:19:56;17.10;2.90
21849;DHT22;11089;49.852;19.700;2022-08-27T01:26:42;17.00;99.90
21849;DHT22;11089;49.852;19.700;2022-08-27T01:29:43;17.00;99.90
21849;DHT22;11089;49.852;19.700;2022-08-27T01:32:46;17.00;1.00
21849;DHT22;11089;49.852;19.700;2022-08-27T01:35:49;17.00;99.90
21849;DHT22;11089;49.852;19.700;2022-08-27T01:38:50;16.90;1.00
21849;DHT22;11089;49.852;19.700;2022-08-27T01:41:51;16.90;1.00
21849;DHT22;11089;49.852;19.700;2022-08-27T01:44:59;16.90;99.90
21849;DHT22;11089;49.852;19.700;2022-08-27T01:48:01;16.80;99.90
21849;DHT22;11089;49.852;19.700;2022-08-27T01:51:03;16.80;99.90
21849;DHT22;11089;49.852;19.700;2022-08-27T01:54:04;16.70;1.00
21849;DHT22;11089;49.852;19.700;2022-08-27T01:57:05;16.80;1.00
21849;DHT22;11089;49.852;19.700;2022-08-27T02:00:16;16.80;52.40
21849;DHT22;11089;49.852;19.700;2022-08-27T02:03:18;16.80;5.40
21849;DHT22;11089;49.852;19.700;2022-08-27T02:06:18;16.70;1.00
21849;DHT22;11089;49.852;19.700;2022-08-27T02:09:19;16.70;1.00
21849;DHT22;11089;49.852;19.700;2022-08-27T02:12:20;16.70;1.00
21849;DHT22;11089;49.852;19.700;2022-08-27T02:15:22;16.60;1.00
21849;DHT22;11089;49.852;19.700;2022-08-27T02:18:23;16.60;1.00
21849;DHT22;11089;49.852;19.700;2022-08-27T02:21:24;16.50;99.90
21849;DHT22;11089;49.852;19.700;2022-08-27T02:24:26;16.50;99.90
21849;DHT22;11089;49.852;19.700;2022-08-27T02:27:28;16.50;1.00
21849;DHT22;11089;49.852;19.700;2022-08-27T02:30:30;16.50;1.00
21849;DHT22;11089;49.852;19.700;2022-08-27T02:33:32;16.50;99.90
21849;DHT22;11089;49.852;19.700;2022-08-27T02:36:33;16.50;1.00
21849;DHT22;11089;49.852;19.700;2022-08-27T02:39:36;16.40;1.00
21849;DHT22;11089;49.852;19.700;2022-08-27T02:42:37;16.30;1.00
21849;DHT22;11089;49.852;19.700;2022-08-27T02:45:38;16.40;99.90
21849;DHT22;11089;49.852;19.700;2022-08-27T02:48:39;16.40;88.30
21849;DHT22;11089;49.852;19.700;2022-08-27T02:51:41;16.40;99.90
21849;DHT22;11089;49.852;19.700;2022-08-27T02:54:43;16.40;1.00
21849;DHT22;11089;49.852;19.700;2022-08-27T02:57:44;16.40;1.00
21849;DHT22;11089;49.852;19.700;2022-08-27T03:00:45;16.30;1.00
21849;DHT22;11089;49.852;19.700;2022-08-27T03:03:46;16.30;99.90
21849;DHT22;11089;49.852;19.700;2022-08-27T03:06:47;16.30;1.00
21849;DHT22;11089;49.852;19.700;2022-08-27T03:09:50;16.30;99.90
21849;DHT22;11089;49.852;19.700;2022-08-27T03:12:51;16.30;99.90
21849;DHT22;11089;49.852;19.700;2022-08-27T03:15:52;16.40;99.90
21849;DHT22;11089;49.852;19.700;2022-08-27T03:18:53;16.30;99.90
21849;DHT22;11089;49.852;19.700;2022-08-27T03:21:54;16.30;1.00
21849;DHT22;11089;49.852;19.700;2022-08-27T03:24:55;16.30;1.00
21849;DHT22;11089;49.852;19.700;2022-08-27T03:27:56;16.30;1.00
21849;DHT22;11089;49.852;19.700;2022-08-27T03:31:01;16.40;54.80
21849;DHT22;11089;49.852;19.700;2022-08-27T03:34:04;16.40;1.00
21849;DHT22;11089;49.852;19.700;2022-08-27T03:37:07;16.30;1.00
21849;DHT22;11089;49.852;19.700;2022-08-27T03:40:09;16.30;1.00
21849;DHT22;11089;49.852;19.700;2022-08-27T03:43:15;16.20;1.00
21849;DHT22;11089;49.852;19.700;2022-08-27T03:46:16;16.10;1.00
21849;DHT22;11089;49.852;19.700;2022-08-27T03:49:18;16.30;23.50
21849;DHT22;11089;49.852;19.700;2022-08-27T03:52:19;16.30;99.90
21849;DHT22;11089;49.852;19.700;2022-08-27T03:55:20;16.20;99.90
21849;DHT22;11089;49.852;19.700;2022-08-27T03:58:21;16.20;99.90
21849;DHT22;11089;49.852;19.700;2022-08-27T04:01:22;16.30;1.00
21849;DHT22;11089;49.852;19.700;2022-08-27T04:04:23;16.30;1.00
21849;DHT22;11089;49.852;19.700;2022-08-27T04:07:23;16.30;99.90
21849;DHT22;11089;49.852;19.700;2022-08-27T04:10:25;16.30;1.00
21849;DHT22;11089;49.852;19.700;2022-08-27T04:13:26;16.30;1.00
21849;DHT22;11089;49.852;19.700;2022-08-27T04:16:27;16.30;97.00
21849;DHT22;11089;49.852;19.700;2022-08-27T04:19:28;16.20;99.90
21849;DHT22;11089;49.852;19.700;2022-08-27T04:22:32;16.20;1.00
21849;DHT22;11089;49.852;19.700;2022-08-27T04:25:33;16.20;1.00
21849;DHT22;11089;49.852;19.700;2022-08-27T04:28:34;16.20;1.00
21849;DHT22;11089;49.852;19.700;2022-08-27T04:31:35;16.20;99.90
21849;DHT22;11089;49.852;19.700;2022-08-27T04:34:36;16.30;1.00
21849;DHT22;11089;49.852;19.700;2022-08-27T04:37:37;16.30;99.90
21849;DHT22;11089;49.852;19.700;2022-08-27T04:40:39;16.40;1.00
21849;DHT22;11089;49.852;19.700;2022-08-27T04:43:56;16.50;99.90
21849;DHT22;11089;49.852;19.700;2022-08-27T04:46:59;16.40;1.00
21849;DHT22;11089;49.852;19.700;2022-08-27T04:50:01;16.40;1.00
21849;DHT22;11089;49.852;19.700;2022-08-27T04:53:02;16.30;99.90
21849;DHT22;11089;49.852;19.700;2022-08-27T04:56:03;16.30;99.90
21849;DHT22;11089;49.852;19.700;2022-08-27T04:59:06;16.30;1.00
21849;DHT22;11089;49.852;19.700;2022-08-27T05:02:08;16.40;17.50
21849;DHT22;11089;49.852;19.700;2022-08-27T05:05:10;16.40;99.90
21849;DHT22;11089;49.852;19.700;2022-08-27T05:08:11;16.50;1.00
21849;DHT22;11089;49.852;19.700;2022-08-27T05:11:13;16.60;1.00
21849;DHT22;11089;49.852;19.700;2022-08-27T05:14:15;16.60;1.00
21849;DHT22;11089;49.852;19.700;2022-08-27T05:17:15;16.60;1.00
21849;DHT22;11089;49.852;19.700;2022-08-27T05:20:16;16.70;99.90
21849;DHT22;11089;49.852;19.700;2022-08-27T05:23:19;16.80;1.00
21849;DHT22;11089;49.852;19.700;2022-08-27T05:26:20;16.80;1.00
21849;DHT22;11089;49.852;19.700;2022-08-27T05:29:21;16.80;1.00
21849;DHT22;11089;49.852;19.700;2022-08-27T05:32:22;16.90;1.00
21849;DHT22;11089;49.852;19.700;2022-08-27T05:35:23;17.00;99.90
21849;DHT22;11089;49.852;19.700;2022-08-27T05:38:26;17.20;99.90
21849;DHT22;11089;49.852;19.700;2022-08-27T05:41:29;17.10;99.90
21849;DHT22;11089;49.852;19.700;2022-08-27T05:44:30;17.10;1.00
21849;DHT22;11089;49.852;19.700;2022-08-27T05:47:31;17.20;1.00
21849;DHT22;11089;49.852;19.700;2022-08-27T05:50:32;17.30;1.00
21849;DHT22;11089;49.852;19.700;2022-08-27T05:53:33;17.40;1.00
21849;DHT22;11089;49.852;19.700;2022-08-27T05:56:36;17.50;99.90
21849;DHT22;11089;49.852;19.700;2022-08-27T05:59:37;17.60;1.00
21849;DHT22;11089;49.852;19.700;2022-08-27T06:02:52;17.60;1.00
21849;DHT22;11089;49.852;19.700;2022-08-27T06:06:00;17.70;99.90
21849;DHT22;11089;49.852;19.700;2022-08-27T06:09:02;17.80;1.00
21849;DHT22;11089;49.852;19.700;2022-08-27T06:12:03;18.00;1.00
21849;DHT22;11089;49.852;19.700;2022-08-27T06:15:04;18.10;1.00
21849;DHT22;11089;49.852;19.700;2022-08-27T06:18:05;18.20;1.00
21849;DHT22;11089;49.852;19.700;2022-08-27T06:21:06;18.20;1.00
21849;DHT22;11089;49.852;19.700;2022-08-27T06:24:08;18.30;1.00
21849;DHT22;11089;49.852;19.700;2022-08-27T06:27:16;18.40;1.00
21849;DHT22;11089;49.852;19.700;2022-08-27T06:30:17;18.60;1.00
21849;DHT22;11089;49.852;19.700;2022-08-27T06:33:18;18.70;1.00
21849;DHT22;11089;49.852;19.700;2022-08-27T06:36:23;18.80;99.90
21849;DHT22;11089;49.852;19.700;2022-08-27T06:39:24;18.90;1.00
21849;DHT22;11089;49.852;19.700;2022-08-27T06:42:25;19.00;1.00
21849;DHT22;11089;49.852;19.700;2022-08-27T06:45:26;19.10;1.00
21849;DHT22;11089;49.852;19.700;2022-08-27T06:48:27;19.20;1.00
21849;DHT22;11089;49.852;19.700;2022-08-27T06:51:33;19.40;1.00
21849;DHT22;11089;49.852;19.700;2022-08-27T06:54:34;19.50;1.00
21849;DHT22;11089;49.852;19.700;2022-08-27T06:57:35;19.70;1.00
21849;DHT22;11089;49.852;19.700;2022-08-27T07:00:36;19.80;99.90
21849;DHT22;11089;49.852;19.700;2022-08-27T07:03:37;19.90;1.00
21849;DHT22;11089;49.852;19.700;2022-08-27T07:06:38;20.00;1.00
21849;DHT22;11089;49.852;19.700;2022-08-27T07:09:40;20.20;99.90
21849;DHT22;11089;49.852;19.700;2022-08-27T07:12:40;20.30;99.90
21849;DHT22;11089;49.852;19.700;2022-08-27T07:15:41;20.50;1.00
21849;DHT22;11089;49.852;19.700;2022-08-27T07:18:42;20.60;99.90
21849;DHT22;11089;49.852;19.700;2022-08-27T07:21:43;20.80;1.00
21849;DHT22;11089;49.852;19.700;2022-08-27T07:24:44;20.90;1.00
21849;DHT22;11089;49.852;19.700;2022-08-27T07:27:48;21.10;1.00
21849;DHT22;11089;49.852;19.700;2022-08-27T07:30:49;21.40;99.90
21849;DHT22;11089;49.852;19.700;2022-08-27T07:33:51;21.50;99.90
21849;DHT22;11089;49.852;19.700;2022-08-27T07:36:52;21.70;99.90
21849;DHT22;11089;49.852;19.700;2022-08-27T07:39:53;21.90;1.00
21849;DHT22;11089;49.852;19.700;2022-08-27T07:42:53;22.00;99.90
21849;DHT22;11089;49.852;19.700;2022-08-27T07:46:08;22.20;1.00
21849;DHT22;11089;49.852;19.700;2022-08-27T07:49:09;22.40;99.90
21849;DHT22;11089;49.852;19.700;2022-08-27T07:52:11;22.80;99.90
21849;DHT22;11089;49.852;19.700;2022-08-27T07:55:13;23.20;1.00
21849;DHT22;11089;49.852;19.700;2022-08-27T07:58:14;23.60;99.90
21849;DHT22;11089;49.852;19.700;2022-08-27T08:01:15;24.00;1.00
21849;DHT22;11089;49.852;19.700;2022-08-27T08:04:16;24.30;1.00
21849;DHT22;11089;49.852;19.700;2022-08-27T08:07:17;24.60;1.00
21849;DHT22;11089;49.852;19.700;2022-08-27T08:10:18;24.70;1.00
21849;DHT22;11089;49.852;19.700;2022-08-27T08:13:23;24.90;1.00
21849;DHT22;11089;49.852;19.700;2022-08-27T08:16:24;25.10;1.00
21849;DHT22;11089;49.852;19.700;2022-08-27T08:19:25;25.30;99.90
21849;DHT22;11089;49.852;19.700;2022-08-27T08:22:26;25.40;99.90
21849;DHT22;11089;49.852;19.700;2022-08-27T08:25:28;25.70;99.90
21849;DHT22;11089;49.852;19.700;2022-08-27T08:28:29;26.10;1.00
21849;DHT22;11089;49.852;19.700;2022-08-27T08:31:30;26.40;1.00
21849;DHT22;11089;49.852;19.700;2022-08-27T08:34:32;26.70;1.00
21849;DHT22;11089;49.852;19.700;2022-08-27T08:37:34;26.80;1.00
21849;DHT22;11089;49.852;19.700;2022-08-27T08:40:39;26.80;1.00
21849;DHT22;11089;49.852;19.700;2022-08-27T08:43:43;27.00;1.00
21849;DHT22;11089;49.852;19.700;2022-08-27T08:47:06;27.20;1.00
21849;DHT22;11089;49.852;19.700;2022-08-27T08:50:13;27.40;1.00
21849;DHT22;11089;49.852;19.700;2022-08-27T08:53:26;27.50;1.00
21849;DHT22;11089;49.852;19.700;2022-08-27T08:56:33;27.70;1.00
21849;DHT22;11089;49.852;19.700;2022-08-27T08:59:40;27.80;1.00
21849;DHT22;11089;49.852;19.700;2022-08-27T09:02:52;28.10;1.00
21849;DHT22;11089;49.852;19.700;2022-08-27T09:05:58;28.30;1.00
21849;DHT22;11089;49.852;19.700;2022-08-27T09:09:20;28.50;1.00
21849;DHT22;11089;49.852;19.700;2022-08-27T09:12:25;28.70;1.00
21849;DHT22;11089;49.852;19.700;2022-08-27T09:15:32;29.00;1.00
21849;DHT22;11089;49.852;19.700;2022-08-27T09:18:39;29.20;1.00
21849;DHT22;11089;49.852;19.700;2022-08-27T09:25:03;29.60;99.90
21849;DHT22;11089;49.852;19.700;2022-08-27T09:28:11;29.80;99.90
21849;DHT22;11089;49.852;19.700;2022-08-27T09:31:26;30.00;99.90
21849;DHT22;11089;49.852;19.700;2022-08-27T09:34:35;30.40;99.90
21849;DHT22;11089;49.852;19.700;2022-08-27T09:37:43;30.60;99.90
21849;DHT22;11089;49.852;19.700;2022-08-27T09:40:48;30.70;99.90
21849;DHT22;11089;49.852;19.700;2022-08-27T09:44:02;30.90;99.90
21849;DHT22;11089;49.852;19.700;2022-08-27T09:47:11;31.10;99.90
21849;DHT22;11089;49.852;19.700;2022-08-27T09:50:18;31.30;99.90
21849;DHT22;11089;49.852;19.700;2022-08-27T09:53:24;31.40;99.90
21849;DHT22;11089;49.852;19.700;2022-08-27T09:56:38;31.60;99.90
21849;DHT22;11089;49.852;19.700;2022-08-27T09:59:48;31.80;99.90
21849;DHT22;11089;49.852;19.700;2022-08-27T10:02:51;31.80;99.90
21849;DHT22;11089;49.852;19.700;2022-08-27T10:05:53;32.20;99.90
21849;DHT22;11089;49.852;19.700;2022-08-27T10:08:57;32.50;99.90
21849;DHT22;11089;49.852;19.700;2022-08-27T10:15:03;32.80;99.90
21849;DHT22;11089;49.852;19.700;2022-08-27T10:18:22;33.00;99.90
21849;DHT22;11089;49.852;19.700;2022-08-27T10:21:41;33.20;99.90
21849;DHT22;11089;49.852;19.700;2022-08-27T10:28:16;33.60;99.90
21849;DHT22;11089;49.852;19.700;2022-08-27T10:31:36;33.80;99.90
21849;DHT22;11089;49.852;19.700;2022-08-27T10:48:39;33.90;99.90
21849;DHT22;11089;49.852;19.700;2022-08-27T10:55:12;34.50;99.90
21849;DHT22;11089;49.852;19.700;2022-08-27T11:04:49;34.50;99.90
21849;DHT22;11089;49.852;19.700;2022-08-27T11:15:20;35.20;99.90
21849;DHT22;11089;49.852;19.700;2022-08-27T11:31:52;36.10;99.90
21849;DHT22;11089;49.852;19.700;2022-08-27T11:35:08;36.10;99.90
21849;DHT22;11089;49.852;19.700;2022-08-27T11:38:31;35.80;99.90
21849;DHT22;11089;49.852;19.700;2022-08-27T11:48:40;35.50;99.90
21849;DHT22;11089;49.852;19.700;2022-08-27T11:51:41;35.30;99.90
21849;DHT22;11089;49.852;19.700;2022-08-27T11:54:48;35.10;99.90
21849;DHT22;11089;49.852;19.700;2022-08-27T12:01:26;34.90;99.90
21849;DHT22;11089;49.852;19.700;2022-08-27T12:07:34;34.60;99.90
21849;DHT22;11089;49.852;19.700;2022-08-27T12:10:54;34.40;99.90
21849;DHT22;11089;49.852;19.700;2022-08-27T12:27:54;34.00;99.90
21849;DHT22;11089;49.852;19.700;2022-08-27T12:30:55;33.90;99.90
21849;DHT22;11089;49.852;19.700;2022-08-27T12:33:58;34.00;99.90
21849;DHT22;11089;49.852;19.700;2022-08-27T12:37:00;33.60;99.90
21849;DHT22;11089;49.852;19.700;2022-08-27T12:43:25;33.30;99.90
21849;DHT22;11089;49.852;19.700;2022-08-27T12:46:27;33.30;99.90
21849;DHT22;11089;49.852;19.700;2022-08-27T12:49:57;33.40;99.90
21849;DHT22;11089;49.852;19.700;2022-08-27T12:53:15;33.40;99.90
21849;DHT22;11089;49.852;19.700;2022-08-27T13:00:06;32.70;99.90
21849;DHT22;11089;49.852;19.700;2022-08-27T13:06:35;32.40;99.90
21849;DHT22;11089;49.852;19.700;2022-08-27T13:09:43;32.50;99.90
21849;DHT22;11089;49.852;19.700;2022-08-27T13:12:46;31.70;99.90
21849;DHT22;11089;49.852;19.700;2022-08-27T13:15:53;31.60;99.90
21849;DHT22;11089;49.852;19.700;2022-08-27T13:18:55;31.10;99.90
21849;DHT22;11089;49.852;19.700;2022-08-27T13:21:56;31.00;99.90
21849;DHT22;11089;49.852;19.700;2022-08-27T13:24:58;31.20;99.90
21849;DHT22;11089;49.852;19.700;2022-08-27T13:28:08;30.90;99.90
21849;DHT22;11089;49.852;19.700;2022-08-27T13:31:11;30.90;99.90
21849;DHT22;11089;49.852;19.700;2022-08-27T13:34:16;30.80;99.90
21849;DHT22;11089;49.852;19.700;2022-08-27T13:37:32;30.70;99.90
21849;DHT22;11089;49.852;19.700;2022-08-27T13:40:49;30.90;99.90
21849;DHT22;11089;49.852;19.700;2022-08-27T13:43:50;30.60;99.90
21849;DHT22;11089;49.852;19.700;2022-08-27T13:47:00;30.40;99.90
21849;DHT22;11089;49.852;19.700;2022-08-27T13:50:07;30.30;99.90
21849;DHT22;11089;49.852;19.700;2022-08-27T13:53:11;30.50;99.90
21849;DHT22;11089;49.852;19.700;2022-08-27T13:56:35;30.30;99.90
21849;DHT22;11089;49.852;19.700;2022-08-27T13:59:38;29.90;99.90
21849;DHT22;11089;49.852;19.700;2022-08-27T14:02:39;29.70;99.90
21849;DHT22;11089;49.852;19.700;2022-08-27T14:05:47;29.60;99.90
21849;DHT22;11089;49.852;19.700;2022-08-27T14:08:48;29.50;99.90
21849;DHT22;11089;49.852;19.700;2022-08-27T14:12:04;29.60;99.90
21849;DHT22;11089;49.852;19.700;2022-08-27T14:18:33;29.60;99.90
21849;DHT22;11089;49.852;19.700;2022-08-27T14:21:38;29.20;99.90
21849;DHT22;11089;49.852;19.700;2022-08-27T14:24:39;28.90;99.90
21849;DHT22;11089;49.852;19.700;2022-08-27T14:27:41;29.00;99.90
21849;DHT22;11089;49.852;19.700;2022-08-27T14:30:42;28.90;99.90
21849;DHT22;11089;49.852;19.700;2022-08-27T14:33:43;29.10;99.90
21849;DHT22;11089;49.852;19.700;2022-08-27T14:36:46;29.00;99.90
21849;DHT22;11089;49.852;19.700;2022-08-27T14:39:47;29.00;99.90
21849;DHT22;11089;49.852;19.700;2022-08-27T14:42:48;28.70;1.00
21849;DHT22;11089;49.852;19.700;2022-08-27T14:45:50;28.60;1.00
21849;DHT22;11089;49.852;19.700;2022-08-27T14:48:53;28.30;1.00
21849;DHT22;11089;49.852;19.700;2022-08-27T14:51:54;28.30;1.00
21849;DHT22;11089;49.852;19.700;2022-08-27T14:54:55;28.30;1.00
21849;DHT22;11089;49.852;19.700;2022-08-27T14:57:57;28.00;1.00
21849;DHT22;11089;49.852;19.700;2022-08-27T15:00:58;27.90;1.00
21849;DHT22;11089;49.852;19.700;2022-08-27T15:03:59;27.90;1.00
21849;DHT22;11089;49.852;19.700;2022-08-27T15:07:02;27.90;1.00
21849;DHT22;11089;49.852;19.700;2022-08-27T15:10:03;27.80;1.00
21849;DHT22;11089;49.852;19.700;2022-08-27T15:13:04;27.80;1.00
21849;DHT22;11089;49.852;19.700;2022-08-27T15:16:05;27.60;1.00
21849;DHT22;11089;49.852;19.700;2022-08-27T15:19:08;27.40;7.70
21849;DHT22;11089;49.852;19.700;2022-08-27T15:22:23;27.40;99.90
21849;DHT22;11089;49.852;19.700;2022-08-27T15:25:26;27.50;99.90
21849;DHT22;11089;49.852;19.700;2022-08-27T15:28:28;27.40;1.00
21849;DHT22;11089;49.852;19.700;2022-08-27T15:31:29;27.60;99.90
21849;DHT22;11089;49.852;19.700;2022-08-27T15:34:30;27.40;1.00
21849;DHT22;11089;49.852;19.700;2022-08-27T15:37:31;27.30;16.70
21849;DHT22;11089;49.852;19.700;2022-08-27T15:40:34;27.30;17.50
21849;DHT22;11089;49.852;19.700;2022-08-27T15:43:37;27.30;99.90
21849;DHT22;11089;49.852;19.700;2022-08-27T15:46:38;27.30;1.30
21849;DHT22;11089;49.852;19.700;2022-08-27T15:49:39;27.30;97.20
21849;DHT22;11089;49.852;19.700;2022-08-27T15:52:44;27.30;99.90
21849;DHT22;11089;49.852;19.700;2022-08-27T15:55:45;27.30;99.90
21849;DHT22;11089;49.852;19.700;2022-08-27T15:58:47;27.30;1.00
21849;DHT22;11089;49.852;19.700;2022-08-27T16:01:47;27.10;99.90
21849;DHT22;11089;49.852;19.700;2022-08-27T16:04:49;27.00;1.00
21849;DHT22;11089;49.852;19.700;2022-08-27T16:07:50;27.00;1.00
21849;DHT22;11089;49.852;19.700;2022-08-27T16:10:51;27.00;1.00
21849;DHT22;11089;49.852;19.700;2022-08-27T16:13:52;26.70;99.90
21849;DHT22;11089;49.852;19.700;2022-08-27T16:16:55;26.50;99.90
21849;DHT22;11089;49.852;19.700;2022-08-27T16:19:57;26.60;1.00
21849;DHT22;11089;49.852;19.700;2022-08-27T16:22:58;26.20;99.90
21849;DHT22;11089;49.852;19.700;2022-08-27T16:26:00;26.30;99.90
21849;DHT22;11089;49.852;19.700;2022-08-27T16:29:01;26.10;99.90
21849;DHT22;11089;49.852;19.700;2022-08-27T16:32:03;26.20;1.00
21849;DHT22;11089;49.852;19.700;2022-08-27T16:35:05;26.00;99.90
21849;DHT22;11089;49.852;19.700;2022-08-27T16:38:09;26.00;99.90
21849;DHT22;11089;49.852;19.700;2022-08-27T16:41:11;25.80;1.00
21849;DHT22;11089;49.852;19.700;2022-08-27T16:44:13;25.90;99.90
21849;DHT22;11089;49.852;19.700;2022-08-27T16:47:14;26.00;99.90
21849;DHT22;11089;49.852;19.700;2022-08-27T16:50:15;25.60;1.00
21849;DHT22;11089;49.852;19.700;2022-08-27T16:53:32;25.30;99.90
21849;DHT22;11089;49.852;19.700;2022-08-27T16:56:36;25.20;1.00
21849;DHT22;11089;49.852;19.700;2022-08-27T16:59:38;25.30;99.90
21849;DHT22;11089;49.852;19.700;2022-08-27T17:02:39;25.50;1.00
21849;DHT22;11089;49.852;19.700;2022-08-27T17:05:40;25.60;99.90
21849;DHT22;11089;49.852;19.700;2022-08-27T17:08:42;25.70;99.90
21849;DHT22;11089;49.852;19.700;2022-08-27T17:11:50;25.80;1.00
21849;DHT22;11089;49.852;19.700;2022-08-27T17:14:52;25.60;1.00
21849;DHT22;11089;49.852;19.700;2022-08-27T17:17:55;25.50;99.90
21849;DHT22;11089;49.852;19.700;2022-08-27T17:20:58;25.30;99.90
21849;DHT22;11089;49.852;19.700;2022-08-27T17:24:00;25.40;99.90
21849;DHT22;11089;49.852;19.700;2022-08-27T17:27:06;25.20;99.90
21849;DHT22;11089;49.852;19.700;2022-08-27T17:30:10;24.90;1.00
21849;DHT22;11089;49.852;19.700;2022-08-27T17:33:19;25.00;1.00
21849;DHT22;11089;49.852;19.700;2022-08-27T17:36:23;25.10;99.90
21849;DHT22;11089;49.852;19.700;2022-08-27T17:39:25;25.20;99.90
21849;DHT22;11089;49.852;19.700;2022-08-27T17:42:27;25.10;99.90
21849;DHT22;11089;49.852;19.700;2022-08-27T17:45:32;25.00;99.90
21849;DHT22;11089;49.852;19.700;2022-08-27T17:48:33;24.90;1.00
21849;DHT22;11089;49.852;19.700;2022-08-27T17:51:36;24.70;99.90
21849;DHT22;11089;49.852;19.700;2022-08-27T17:54:41;24.40;1.00
21849;DHT22;11089;49.852;19.700;2022-08-27T17:57:43;24.30;1.00
21849;DHT22;11089;49.852;19.700;2022-08-27T18:00:46;24.50;1.00
21849;DHT22;11089;49.852;19.700;2022-08-27T18:03:47;24.40;1.00
21849;DHT22;11089;49.852;19.700;2022-08-27T18:06:48;24.40;99.90
21849;DHT22;11089;49.852;19.700;2022-08-27T18:09:49;24.30;1.00
21849;DHT22;11089;49.852;19.700;2022-08-27T18:12:51;24.20;1.00
21849;DHT22;11089;49.852;19.700;2022-08-27T18:15:54;24.20;1.00
21849;DHT22;11089;49.852;19.700;2022-08-27T18:18:55;24.00;1.00
21849;DHT22;11089;49.852;19.700;2022-08-27T18:21:56;24.00;1.00
21849;DHT22;11089;49.852;19.700;2022-08-27T18:24:57;23.90;99.90
21849;DHT22;11089;49.852;19.700;2022-08-27T18:28:01;23.80;1.00
21849;DHT22;11089;49.852;19.700;2022-08-27T18:31:03;24.00;1.00
21849;DHT22;11089;49.852;19.700;2022-08-27T18:34:04;23.90;99.90
21849;DHT22;11089;49.852;19.700;2022-08-27T18:37:05;23.90;1.00
21849;DHT22;11089;49.852;19.700;2022-08-27T18:40:09;23.70;99.90
21849;DHT22;11089;49.852;19.700;2022-08-27T18:43:11;23.50;1.00
21849;DHT22;11089;49.852;19.700;2022-08-27T18:46:13;23.50;1.00
21849;DHT22;11089;49.852;19.700;2022-08-27T18:49:14;23.40;99.90
21849;DHT22;11089;49.852;19.700;2022-08-27T18:52:16;23.60;79.70
21849;DHT22;11089;49.852;19.700;2022-08-27T18:55:22;23.60;99.90
21849;DHT22;11089;49.852;19.700;2022-08-27T18:58:24;23.50;99.90
21849;DHT22;11089;49.852;19.700;2022-08-27T19:01:26;23.50;1.00
21849;DHT22;11089;49.852;19.700;2022-08-27T19:04:30;23.50;99.90
21849;DHT22;11089;49.852;19.700;2022-08-27T19:07:32;23.40;1.00
21849;DHT22;11089;49.852;19.700;2022-08-27T19:10:33;23.40;99.90
21849;DHT22;11089;49.852;19.700;2022-08-27T19:13:34;23.40;99.90
21849;DHT22;11089;49.852;19.700;2022-08-27T19:16:44;23.60;1.00
21849;DHT22;11089;49.852;19.700;2022-08-27T19:19:48;23.40;28.20
21849;DHT22;11089;49.852;19.700;2022-08-27T19:22:49;23.30;99.90
21849;DHT22;11089;49.852;19.700;2022-08-27T19:25:51;23.20;1.00
21849;DHT22;11089;49.852;19.700;2022-08-27T19:28:52;23.30;99.90
21849;DHT22;11089;49.852;19.700;2022-08-27T19:31:53;23.20;99.90
21849;DHT22;11089;49.852;19.700;2022-08-27T19:34:54;23.20;1.00
21849;DHT22;11089;49.852;19.700;2022-08-27T19:37:55;23.10;99.90
21849;DHT22;11089;49.852;19.700;2022-08-27T19:40:57;23.10;1.00
21849;DHT22;11089;49.852;19.700;2022-08-27T19:43:59;23.10;99.90
21849;DHT22;11089;49.852;19.700;2022-08-27T19:47:00;23.30;99.90
21849;DHT22;11089;49.852;19.700;2022-08-27T19:50:01;23.00;1.00
21849;DHT22;11089;49.852;19.700;2022-08-27T19:53:02;23.10;1.00
21849;DHT22;11089;49.852;19.700;2022-08-27T19:56:04;23.00;99.90
21849;DHT22;11089;49.852;19.700;2022-08-27T19:59:05;23.10;9.40
21849;DHT22;11089;49.852;19.700;2022-08-27T20:02:09;23.00;99.90
21849;DHT22;11089;49.852;19.700;2022-08-27T20:05:11;23.00;1.00
21849;DHT22;11089;49.852;19.700;2022-08-27T20:08:12;22.80;99.90
21849;DHT22;11089;49.852;19.700;2022-08-27T20:11:13;22.80;99.90
21849;DHT22;11089;49.852;19.700;2022-08-27T20:14:15;22.90;53.00
21849;DHT22;11089;49.852;19.700;2022-08-27T20:17:17;22.90;1.00
21849;DHT22;11089;49.852;19.700;2022-08-27T20:20:21;22.90;1.00
21849;DHT22;11089;49.852;19.700;2022-08-27T20:23:22;22.70;99.90
21849;DHT22;11089;49.852;19.700;2022-08-27T20:26:23;22.50;1.00
21849;DHT22;11089;49.852;19.700;2022-08-27T20:29:24;22.50;1.00
21849;DHT22;11089;49.852;19.700;2022-08-27T20:32:27;22.60;1.00
21849;DHT22;11089;49.852;19.700;2022-08-27T20:35:28;22.60;1.00
21849;DHT22;11089;49.852;19.700;2022-08-27T20:38:29;22.40;99.90
21849;DHT22;11089;49.852;19.700;2022-08-27T20:41:30;22.40;1.00
21849;DHT22;11089;49.852;19.700;2022-08-27T20:44:31;22.40;1.00
21849;DHT22;11089;49.852;19.700;2022-08-27T20:47:32;22.30;1.00
21849;DHT22;11089;49.852;19.700;2022-08-27T20:50:33;22.20;99.90